sensor_id;sensor_type;location;lat;lon;timestamp;temperature;humidity
2657;DHT22;1338;48.176;11.792;2024-03-29T00:01:29;3.20;97.10
2657;DHT22;1338;48.176;11.792;2024-03-29T00:03:55;3.20;94.10
2657;DHT22;1338;48.176;11.792;2024-03-29T00:06:25;3.20;63.30
2657;DHT22;1338;48.176;11.792;2024-03-29T00:08:52;3.20;78.90
2657;DHT22;1338;48.176;11.792;2024-03-29T00:11:18;3.50;99.90
2657;DHT22;1338;48.176;11.792;2024-03-29T00:13:44;3.50;1.00
2657;DHT22;1338;48.176;11.792;2024-03-29T00:16:12;3.70;1.00
2657;DHT22;1338;48.176;11.792;2024-03-29T00:18:41;3.50;1.00
2657;DHT22;1338;48.176;11.792;2024-03-29T00:21:07;3.50;1.00
2657;DHT22;1338;48.176;11.792;2024-03-29T00:23:34;3.50;1.00
2657;DHT22;1338;48.176;11.792;2024-03-29T00:26:00;3.50;1.00
2657;DHT22;1338;48.176;11.792;2024-03-29T00:28:26;3.50;1.00
2657;DHT22;1338;48.176;11.792;2024-03-29T00:30:53;3.40;1.00
2657;DHT22;1338;48.176;11.792;2024-03-29T00:33:20;3.40;1.00
2657;DHT22;1338;48.176;11.792;2024-03-29T00:35:47;3.60;1.00
2657;DHT22;1338;48.176;11.792;2024-03-29T00:38:14;3.70;1.00
2657;DHT22;1338;48.176;11.792;2024-03-29T00:40:40;3.80;1.00
2657;DHT22;1338;48.176;11.792;2024-03-29T00:43:06;4.10;1.00
2657;DHT22;1338;48.176;11.792;2024-03-29T00:45:32;4.00;1.00
2657;DHT22;1338;48.176;11.792;2024-03-29T00:47:59;3.90;1.00
2657;DHT22;1338;48.176;11.792;2024-03-29T00:50:27;4.10;1.00
2657;DHT22;1338;48.176;11.792;2024-03-29T00:52:54;4.10;1.00
2657;DHT22;1338;48.176;11.792;2024-03-29T00:55:21;4.00;1.00
2657;DHT22;1338;48.176;11.792;2024-03-29T00:57:47;4.20;1.00
2657;DHT22;1338;48.176;11.792;2024-03-29T01:00:16;4.30;1.00
2657;DHT22;1338;48.176;11.792;2024-03-29T01:02:43;4.00;1.00
2657;DHT22;1338;48.176;11.792;2024-03-29T01:05:09;3.90;1.00
2657;DHT22;1338;48.176;11.792;2024-03-29T01:07:40;3.80;1.00
2657;DHT22;1338;48.176;11.792;2024-03-29T01:10:07;3.70;1.00
2657;DHT22;1338;48.176;11.792;2024-03-29T01:12:34;3.60;1.00
2657;DHT22;1338;48.176;11.792;2024-03-29T01:15:01;3.90;1.00
2657;DHT22;1338;48.176;11.792;2024-03-29T01:17:28;4.40;1.00
2657;DHT22;1338;48.176;11.792;2024-03-29T01:19:55;4.20;1.00
2657;DHT22;1338;48.176;11.792;2024-03-29T01:22:21;3.70;1.00
2657;DHT22;1338;48.176;11.792;2024-03-29T01:24:49;3.60;1.00
2657;DHT22;1338;48.176;11.792;2024-03-29T01:27:15;3.90;1.00
2657;DHT22;1338;48.176;11.792;2024-03-29T01:29:42;4.00;1.00
2657;DHT22;1338;48.176;11.792;2024-03-29T01:32:08;3.90;1.00
2657;DHT22;1338;48.176;11.792;2024-03-29T01:34:35;3.80;1.00
2657;DHT22;1338;48.176;11.792;2024-03-29T01:37:01;3.70;1.00
2657;DHT22;1338;48.176;11.792;2024-03-29T01:39:28;3.60;1.00
2657;DHT22;1338;48.176;11.792;2024-03-29T01:41:56;3.50;1.00
2657;DHT22;1338;48.176;11.792;2024-03-29T01:44:22;4.00;1.00
2657;DHT22;1338;48.176;11.792;2024-03-29T01:46:49;4.20;1.00
2657;DHT22;1338;48.176;11.792;2024-03-29T01:49:17;4.00;1.00
2657;DHT22;1338;48.176;11.792;2024-03-29T01:51:45;4.10;1.00
2657;DHT22;1338;48.176;11.792;2024-03-29T01:54:12;4.10;1.00
2657;DHT22;1338;48.176;11.792;2024-03-29T01:56:40;4.10;1.00
2657;DHT22;1338;48.176;11.792;2024-03-29T01:59:13;4.00;1.00
2657;DHT22;1338;48.176;11.792;2024-03-29T02:01:42;4.40;1.00
2657;DHT22;1338;48.176;11.792;2024-03-29T02:04:11;4.30;1.00
2657;DHT22;1338;48.176;11.792;2024-03-29T02:06:39;4.20;1.00
2657;DHT22;1338;48.176;11.792;2024-03-29T02:09:06;4.00;1.00
2657;DHT22;1338;48.176;11.792;2024-03-29T02:11:34;4.00;1.00
2657;DHT22;1338;48.176;11.792;2024-03-29T02:14:03;4.00;1.00
2657;DHT22;1338;48.176;11.792;2024-03-29T02:16:33;3.90;1.00
2657;DHT22;1338;48.176;11.792;2024-03-29T02:19:00;4.20;1.00
2657;DHT22;1338;48.176;11.792;2024-03-29T02:21:28;4.00;1.00
2657;DHT22;1338;48.176;11.792;2024-03-29T02:24:06;4.10;1.00
2657;DHT22;1338;48.176;11.792;2024-03-29T02:26:33;4.20;1.00
2657;DHT22;1338;48.176;11.792;2024-03-29T02:29:02;4.30;1.00
2657;DHT22;1338;48.176;11.792;2024-03-29T02:31:30;4.00;1.00
2657;DHT22;1338;48.176;11.792;2024-03-29T02:33:57;4.20;1.00
2657;DHT22;1338;48.176;11.792;2024-03-29T02:36:24;4.20;1.00
2657;DHT22;1338;48.176;11.792;2024-03-29T02:38:52;4.10;1.00
2657;DHT22;1338;48.176;11.792;2024-03-29T02:41:21;4.20;1.00
2657;DHT22;1338;48.176;11.792;2024-03-29T02:43:49;4.30;1.00
2657;DHT22;1338;48.176;11.792;2024-03-29T02:46:16;4.20;1.00
2657;DHT22;1338;48.176;11.792;2024-03-29T02:48:43;4.20;1.00
2657;DHT22;1338;48.176;11.792;2024-03-29T02:51:10;4.20;1.00
2657;DHT22;1338;48.176;11.792;2024-03-29T02:53:37;4.30;1.00
2657;DHT22;1338;48.176;11.792;2024-03-29T02:56:04;4.30;1.00
2657;DHT22;1338;48.176;11.792;2024-03-29T02:58:34;4.30;1.00
2657;DHT22;1338;48.176;11.792;2024-03-29T03:01:05;4.20;1.00
2657;DHT22;1338;48.176;11.792;2024-03-29T03:03:33;4.30;1.00
2657;DHT22;1338;48.176;11.792;2024-03-29T03:06:00;4.00;1.00
2657;DHT22;1338;48.176;11.792;2024-03-29T03:08:27;4.10;1.00
2657;DHT22;1338;48.176;11.792;2024-03-29T03:11:12;4.30;1.00
2657;DHT22;1338;48.176;11.792;2024-03-29T03:13:40;4.40;1.00
2657;DHT22;1338;48.176;11.792;2024-03-29T03:16:08;4.20;1.00
2657;DHT22;1338;48.176;11.792;2024-03-29T03:18:35;4.10;1.00
2657;DHT22;1338;48.176;11.792;2024-03-29T03:21:02;4.00;1.00
2657;DHT22;1338;48.176;11.792;2024-03-29T03:23:29;3.90;1.00
2657;DHT22;1338;48.176;11.792;2024-03-29T03:25:56;4.10;1.00
2657;DHT22;1338;48.176;11.792;2024-03-29T03:28:24;4.10;1.00
2657;DHT22;1338;48.176;11.792;2024-03-29T03:30:53;4.30;1.00
2657;DHT22;1338;48.176;11.792;2024-03-29T03:33:21;4.10;1.00
2657;DHT22;1338;48.176;11.792;2024-03-29T03:35:47;4.00;1.00
2657;DHT22;1338;48.176;11.792;2024-03-29T03:38:16;4.10;1.00
2657;DHT22;1338;48.176;11.792;2024-03-29T03:40:42;4.00;1.00
2657;DHT22;1338;48.176;11.792;2024-03-29T03:43:10;4.10;1.00
2657;DHT22;1338;48.176;11.792;2024-03-29T03:45:37;4.10;1.00
2657;DHT22;1338;48.176;11.792;2024-03-29T03:48:08;4.10;1.00
2657;DHT22;1338;48.176;11.792;2024-03-29T03:50:36;4.00;1.00
2657;DHT22;1338;48.176;11.792;2024-03-29T03:53:03;3.80;1.00
2657;DHT22;1338;48.176;11.792;2024-03-29T03:55:30;3.90;1.00
2657;DHT22;1338;48.176;11.792;2024-03-29T03:57:57;4.00;1.00
2657;DHT22;1338;48.176;11.792;2024-03-29T04:00:24;4.10;1.00
2657;DHT22;1338;48.176;11.792;2024-03-29T04:02:52;4.10;1.00
2657;DHT22;1338;48.176;11.792;2024-03-29T04:05:20;4.10;1.00
2657;DHT22;1338;48.176;11.792;2024-03-29T04:07:47;4.00;1.00
2657;DHT22;1338;48.176;11.792;2024-03-29T04:10:14;4.10;1.00
2657;DHT22;1338;48.176;11.792;2024-03-29T04:12:41;4.10;1.00
2657;DHT22;1338;48.176;11.792;2024-03-29T04:15:08;4.10;1.00
2657;DHT22;1338;48.176;11.792;2024-03-29T04:17:36;4.20;1.00
2657;DHT22;1338;48.176;11.792;2024-03-29T04:20:03;4.20;1.00
2657;DHT22;1338;48.176;11.792;2024-03-29T04:22:32;4.20;1.00
2657;DHT22;1338;48.176;11.792;2024-03-29T04:24:59;4.10;1.00
2657;DHT22;1338;48.176;11.792;2024-03-29T04:27:26;4.20;1.00
2657;DHT22;1338;48.176;11.792;2024-03-29T04:29:53;4.10;1.00
2657;DHT22;1338;48.176;11.792;2024-03-29T04:32:21;4.20;1.00
2657;DHT22;1338;48.176;11.792;2024-03-29T04:34:47;4.10;1.00
2657;DHT22;1338;48.176;11.792;2024-03-29T04:37:15;3.90;1.00
2657;DHT22;1338;48.176;11.792;2024-03-29T04:39:45;4.00;1.00
2657;DHT22;1338;48.176;11.792;2024-03-29T04:42:12;4.30;1.00
2657;DHT22;1338;48.176;11.792;2024-03-29T04:44:41;4.20;1.00
2657;DHT22;1338;48.176;11.792;2024-03-29T04:47:08;3.90;1.00
2657;DHT22;1338;48.176;11.792;2024-03-29T04:49:36;4.00;1.00
2657;DHT22;1338;48.176;11.792;2024-03-29T04:52:04;4.00;1.00
2657;DHT22;1338;48.176;11.792;2024-03-29T04:54:32;4.20;1.00
2657;DHT22;1338;48.176;11.792;2024-03-29T04:57:01;4.20;1.00
2657;DHT22;1338;48.176;11.792;2024-03-29T04:59:29;4.30;1.00
2657;DHT22;1338;48.176;11.792;2024-03-29T05:01:58;4.40;1.00
2657;DHT22;1338;48.176;11.792;2024-03-29T05:04:25;4.50;1.00
2657;DHT22;1338;48.176;11.792;2024-03-29T05:06:53;4.50;1.00
2657;DHT22;1338;48.176;11.792;2024-03-29T05:09:20;4.40;1.00
2657;DHT22;1338;48.176;11.792;2024-03-29T05:11:48;4.60;1.00
2657;DHT22;1338;48.176;11.792;2024-03-29T05:14:17;4.60;1.00
2657;DHT22;1338;48.176;11.792;2024-03-29T05:16:45;4.60;1.00
2657;DHT22;1338;48.176;11.792;2024-03-29T05:19:13;4.70;1.00
2657;DHT22;1338;48.176;11.792;2024-03-29T05:21:40;4.70;1.00
2657;DHT22;1338;48.176;11.792;2024-03-29T05:24:08;4.80;1.00
2657;DHT22;1338;48.176;11.792;2024-03-29T05:26:36;4.90;1.00
2657;DHT22;1338;48.176;11.792;2024-03-29T05:29:03;5.00;1.00
2657;DHT22;1338;48.176;11.792;2024-03-29T05:31:32;5.10;1.00
2657;DHT22;1338;48.176;11.792;2024-03-29T05:33:59;5.00;1.00
2657;DHT22;1338;48.176;11.792;2024-03-29T05:36:28;5.00;1.00
2657;DHT22;1338;48.176;11.792;2024-03-29T05:38:55;5.10;1.00
2657;DHT22;1338;48.176;11.792;2024-03-29T05:41:23;5.30;1.00
2657;DHT22;1338;48.176;11.792;2024-03-29T05:43:50;5.20;1.00
2657;DHT22;1338;48.176;11.792;2024-03-29T05:46:18;5.20;1.00
2657;DHT22;1338;48.176;11.792;2024-03-29T05:48:46;5.30;1.00
2657;DHT22;1338;48.176;11.792;2024-03-29T05:51:14;5.30;1.00
2657;DHT22;1338;48.176;11.792;2024-03-29T05:53:41;5.30;1.00
2657;DHT22;1338;48.176;11.792;2024-03-29T05:56:09;5.40;1.00
2657;DHT22;1338;48.176;11.792;2024-03-29T05:58:37;5.30;1.00
2657;DHT22;1338;48.176;11.792;2024-03-29T06:01:05;5.40;1.00
2657;DHT22;1338;48.176;11.792;2024-03-29T06:03:32;5.40;1.00
2657;DHT22;1338;48.176;11.792;2024-03-29T06:06:01;5.50;1.00
2657;DHT22;1338;48.176;11.792;2024-03-29T06:08:28;5.60;1.00
2657;DHT22;1338;48.176;11.792;2024-03-29T06:10:56;5.60;1.00
2657;DHT22;1338;48.176;11.792;2024-03-29T06:13:25;5.80;1.00
2657;DHT22;1338;48.176;11.792;2024-03-29T06:16:15;5.80;1.00
2657;DHT22;1338;48.176;11.792;2024-03-29T06:19:00;5.90;1.00
2657;DHT22;1338;48.176;11.792;2024-03-29T06:21:29;5.90;1.00
2657;DHT22;1338;48.176;11.792;2024-03-29T06:24:04;5.80;1.00
2657;DHT22;1338;48.176;11.792;2024-03-29T06:26:32;5.90;1.00
2657;DHT22;1338;48.176;11.792;2024-03-29T06:29:00;6.00;1.00
2657;DHT22;1338;48.176;11.792;2024-03-29T06:31:28;6.00;1.00
2657;DHT22;1338;48.176;11.792;2024-03-29T06:33:57;6.10;1.00
2657;DHT22;1338;48.176;11.792;2024-03-29T06:36:24;6.40;1.00
2657;DHT22;1338;48.176;11.792;2024-03-29T06:38:54;6.50;1.00
2657;DHT22;1338;48.176;11.792;2024-03-29T06:41:21;6.60;1.00
2657;DHT22;1338;48.176;11.792;2024-03-29T06:43:49;6.80;1.00
2657;DHT22;1338;48.176;11.792;2024-03-29T06:46:16;6.80;1.00
2657;DHT22;1338;48.176;11.792;2024-03-29T06:48:44;6.80;1.00
2657;DHT22;1338;48.176;11.792;2024-03-29T06:51:11;6.70;1.00
2657;DHT22;1338;48.176;11.792;2024-03-29T06:53:38;6.90;1.00
2657;DHT22;1338;48.176;11.792;2024-03-29T06:56:07;7.10;1.00
2657;DHT22;1338;48.176;11.792;2024-03-29T06:58:35;7.20;1.00
2657;DHT22;1338;48.176;11.792;2024-03-29T07:01:02;7.00;1.00
2657;DHT22;1338;48.176;11.792;2024-03-29T07:03:30;7.00;1.00
2657;DHT22;1338;48.176;11.792;2024-03-29T07:05:57;7.00;1.00
2657;DHT22;1338;48.176;11.792;2024-03-29T07:08:24;7.10;1.00
2657;DHT22;1338;48.176;11.792;2024-03-29T07:10:58;7.10;1.00
2657;DHT22;1338;48.176;11.792;2024-03-29T07:13:29;7.10;1.00
2657;DHT22;1338;48.176;11.792;2024-03-29T07:15:57;7.10;1.00
2657;DHT22;1338;48.176;11.792;2024-03-29T07:18:24;7.20;1.00
2657;DHT22;1338;48.176;11.792;2024-03-29T07:20:52;7.30;1.00
2657;DHT22;1338;48.176;11.792;2024-03-29T07:23:20;7.40;1.00
2657;DHT22;1338;48.176;11.792;2024-03-29T07:25:57;7.50;1.00
2657;DHT22;1338;48.176;11.792;2024-03-29T07:28:27;7.60;1.00
2657;DHT22;1338;48.176;11.792;2024-03-29T07:30:54;7.70;1.00
2657;DHT22;1338;48.176;11.792;2024-03-29T07:33:23;7.70;1.00
2657;DHT22;1338;48.176;11.792;2024-03-29T07:35:52;7.90;1.00
2657;DHT22;1338;48.176;11.792;2024-03-29T07:38:20;7.90;1.00
2657;DHT22;1338;48.176;11.792;2024-03-29T07:40:49;8.20;1.00
2657;DHT22;1338;48.176;11.792;2024-03-29T07:43:17;8.30;1.00
2657;DHT22;1338;48.176;11.792;2024-03-29T07:45:48;8.30;1.00
2657;DHT22;1338;48.176;11.792;2024-03-29T07:48:17;8.20;1.00
2657;DHT22;1338;48.176;11.792;2024-03-29T07:50:45;8.40;1.00
2657;DHT22;1338;48.176;11.792;2024-03-29T07:53:13;8.70;1.00
2657;DHT22;1338;48.176;11.792;2024-03-29T07:55:41;8.70;1.00
2657;DHT22;1338;48.176;11.792;2024-03-29T07:58:09;8.70;1.00
2657;DHT22;1338;48.176;11.792;2024-03-29T08:00:39;9.00;1.00
2657;DHT22;1338;48.176;11.792;2024-03-29T08:03:09;9.10;1.00
2657;DHT22;1338;48.176;11.792;2024-03-29T08:05:37;9.10;1.00
2657;DHT22;1338;48.176;11.792;2024-03-29T08:08:06;8.90;1.00
2657;DHT22;1338;48.176;11.792;2024-03-29T08:10:34;9.00;1.00
2657;DHT22;1338;48.176;11.792;2024-03-29T08:13:02;9.30;1.00
2657;DHT22;1338;48.176;11.792;2024-03-29T08:15:29;9.30;1.00
2657;DHT22;1338;48.176;11.792;2024-03-29T08:17:56;9.40;1.00
2657;DHT22;1338;48.176;11.792;2024-03-29T08:20:25;9.50;1.00
2657;DHT22;1338;48.176;11.792;2024-03-29T08:22:58;9.60;1.00
2657;DHT22;1338;48.176;11.792;2024-03-29T08:25:25;9.50;1.00
2657;DHT22;1338;48.176;11.792;2024-03-29T08:27:53;10.00;1.00
2657;DHT22;1338;48.176;11.792;2024-03-29T08:30:24;10.30;1.00
2657;DHT22;1338;48.176;11.792;2024-03-29T08:32:51;10.40;1.00
2657;DHT22;1338;48.176;11.792;2024-03-29T08:35:19;10.60;1.00
2657;DHT22;1338;48.176;11.792;2024-03-29T08:37:48;10.60;1.00
2657;DHT22;1338;48.176;11.792;2024-03-29T08:40:17;10.90;1.00
2657;DHT22;1338;48.176;11.792;2024-03-29T08:42:45;10.90;1.00
2657;DHT22;1338;48.176;11.792;2024-03-29T08:45:12;10.90;1.00
2657;DHT22;1338;48.176;11.792;2024-03-29T08:47:40;11.10;1.00
2657;DHT22;1338;48.176;11.792;2024-03-29T08:50:08;11.20;1.00
2657;DHT22;1338;48.176;11.792;2024-03-29T08:52:38;10.90;1.00
2657;DHT22;1338;48.176;11.792;2024-03-29T08:55:08;11.50;1.00
2657;DHT22;1338;48.176;11.792;2024-03-29T08:57:36;10.90;1.00
2657;DHT22;1338;48.176;11.792;2024-03-29T09:00:05;10.80;1.00
2657;DHT22;1338;48.176;11.792;2024-03-29T09:05:00;11.90;1.00
2657;DHT22;1338;48.176;11.792;2024-03-29T09:07:28;11.70;1.00
2657;DHT22;1338;48.176;11.792;2024-03-29T09:09:56;11.60;1.00
2657;DHT22;1338;48.176;11.792;2024-03-29T09:12:25;12.10;1.00
2657;DHT22;1338;48.176;11.792;2024-03-29T09:14:53;12.20;1.00
2657;DHT22;1338;48.176;11.792;2024-03-29T09:17:20;12.20;1.00
2657;DHT22;1338;48.176;11.792;2024-03-29T09:19:50;12.00;1.00
2657;DHT22;1338;48.176;11.792;2024-03-29T09:22:19;12.50;1.00
2657;DHT22;1338;48.176;11.792;2024-03-29T09:24:45;13.20;1.00
2657;DHT22;1338;48.176;11.792;2024-03-29T09:27:13;12.20;1.00
2657;DHT22;1338;48.176;11.792;2024-03-29T09:29:43;13.10;1.00
2657;DHT22;1338;48.176;11.792;2024-03-29T09:32:10;12.60;1.00
2657;DHT22;1338;48.176;11.792;2024-03-29T09:34:38;13.10;1.00
2657;DHT22;1338;48.176;11.792;2024-03-29T09:37:06;13.60;1.00
2657;DHT22;1338;48.176;11.792;2024-03-29T09:39:33;13.80;99.90
2657;DHT22;1338;48.176;11.792;2024-03-29T09:42:02;13.20;99.90
2657;DHT22;1338;48.176;11.792;2024-03-29T09:44:32;13.70;99.90
2657;DHT22;1338;48.176;11.792;2024-03-29T09:47:06;13.00;99.90
2657;DHT22;1338;48.176;11.792;2024-03-29T09:49:35;13.40;99.90
2657;DHT22;1338;48.176;11.792;2024-03-29T09:52:03;13.60;99.90
2657;DHT22;1338;48.176;11.792;2024-03-29T09:54:31;14.40;99.90
2657;DHT22;1338;48.176;11.792;2024-03-29T09:56:59;14.30;99.90
2657;DHT22;1338;48.176;11.792;2024-03-29T09:59:28;14.90;99.90
2657;DHT22;1338;48.176;11.792;2024-03-29T10:01:55;14.60;99.90
2657;DHT22;1338;48.176;11.792;2024-03-29T10:04:24;15.10;99.90
2657;DHT22;1338;48.176;11.792;2024-03-29T10:06:52;15.20;99.90
2657;DHT22;1338;48.176;11.792;2024-03-29T10:09:20;15.20;99.90
2657;DHT22;1338;48.176;11.792;2024-03-29T10:11:48;15.60;99.90
2657;DHT22;1338;48.176;11.792;2024-03-29T10:14:15;15.40;99.90
2657;DHT22;1338;48.176;11.792;2024-03-29T10:16:43;15.30;99.90
2657;DHT22;1338;48.176;11.792;2024-03-29T10:19:12;15.60;99.90
2657;DHT22;1338;48.176;11.792;2024-03-29T10:21:41;15.40;99.90
2657;DHT22;1338;48.176;11.792;2024-03-29T10:24:12;16.20;99.90
2657;DHT22;1338;48.176;11.792;2024-03-29T10:26:40;16.10;99.90
2657;DHT22;1338;48.176;11.792;2024-03-29T10:29:08;15.70;99.90
2657;DHT22;1338;48.176;11.792;2024-03-29T10:31:36;16.10;99.90
2657;DHT22;1338;48.176;11.792;2024-03-29T10:34:04;16.50;99.90
2657;DHT22;1338;48.176;11.792;2024-03-29T10:36:32;16.50;99.90
2657;DHT22;1338;48.176;11.792;2024-03-29T10:39:09;17.00;99.90
2657;DHT22;1338;48.176;11.792;2024-03-29T10:41:40;16.60;99.90
2657;DHT22;1338;48.176;11.792;2024-03-29T10:44:09;16.50;99.90
2657;DHT22;1338;48.176;11.792;2024-03-29T10:46:38;16.60;99.90
2657;DHT22;1338;48.176;11.792;2024-03-29T10:49:08;16.30;99.90
2657;DHT22;1338;48.176;11.792;2024-03-29T10:51:38;16.30;99.90
2657;DHT22;1338;48.176;11.792;2024-03-29T10:54:08;15.70;99.90
2657;DHT22;1338;48.176;11.792;2024-03-29T10:56:36;15.90;99.90
2657;DHT22;1338;48.176;11.792;2024-03-29T10:59:09;16.50;99.90
2657;DHT22;1338;48.176;11.792;2024-03-29T11:01:41;16.90;99.90
2657;DHT22;1338;48.176;11.792;2024-03-29T11:04:13;17.10;99.90
2657;DHT22;1338;48.176;11.792;2024-03-29T11:06:46;16.80;99.90
2657;DHT22;1338;48.176;11.792;2024-03-29T11:09:17;16.90;99.90
2657;DHT22;1338;48.176;11.792;2024-03-29T11:11:48;16.80;99.90
2657;DHT22;1338;48.176;11.792;2024-03-29T11:14:22;17.60;99.90
2657;DHT22;1338;48.176;11.792;2024-03-29T11:16:51;16.90;99.90
2657;DHT22;1338;48.176;11.792;2024-03-29T11:19:23;17.20;99.90
2657;DHT22;1338;48.176;11.792;2024-03-29T11:21:51;16.70;99.90
2657;DHT22;1338;48.176;11.792;2024-03-29T11:24:22;16.90;99.90
2657;DHT22;1338;48.176;11.792;2024-03-29T11:26:50;17.00;99.90
2657;DHT22;1338;48.176;11.792;2024-03-29T11:29:18;16.30;99.90
2657;DHT22;1338;48.176;11.792;2024-03-29T11:31:46;16.40;99.90
2657;DHT22;1338;48.176;11.792;2024-03-29T11:34:19;17.20;99.90
2657;DHT22;1338;48.176;11.792;2024-03-29T11:36:47;17.70;99.90
2657;DHT22;1338;48.176;11.792;2024-03-29T11:39:22;17.40;99.90
2657;DHT22;1338;48.176;11.792;2024-03-29T11:41:50;16.70;99.90
2657;DHT22;1338;48.176;11.792;2024-03-29T11:46:46;17.50;99.90
2657;DHT22;1338;48.176;11.792;2024-03-29T11:49:15;18.90;99.90
2657;DHT22;1338;48.176;11.792;2024-03-29T11:51:43;19.10;99.90
2657;DHT22;1338;48.176;11.792;2024-03-29T11:54:10;19.50;99.90
2657;DHT22;1338;48.176;11.792;2024-03-29T11:56:39;19.40;99.90
2657;DHT22;1338;48.176;11.792;2024-03-29T11:59:07;19.40;99.90
2657;DHT22;1338;48.176;11.792;2024-03-29T12:01:36;18.60;99.90
2657;DHT22;1338;48.176;11.792;2024-03-29T12:04:07;19.80;99.90
2657;DHT22;1338;48.176;11.792;2024-03-29T12:06:35;19.40;99.90
2657;DHT22;1338;48.176;11.792;2024-03-29T12:09:03;19.70;99.90
2657;DHT22;1338;48.176;11.792;2024-03-29T12:11:31;19.90;99.90
2657;DHT22;1338;48.176;11.792;2024-03-29T12:14:00;18.60;99.90
2657;DHT22;1338;48.176;11.792;2024-03-29T12:16:28;19.00;99.90
2657;DHT22;1338;48.176;11.792;2024-03-29T12:18:56;19.70;99.90
2657;DHT22;1338;48.176;11.792;2024-03-29T12:21:25;19.60;99.90
2657;DHT22;1338;48.176;11.792;2024-03-29T12:23:52;19.70;99.90
2657;DHT22;1338;48.176;11.792;2024-03-29T12:26:20;21.20;99.90
2657;DHT22;1338;48.176;11.792;2024-03-29T12:28:49;21.70;99.90
2657;DHT22;1338;48.176;11.792;2024-03-29T12:31:18;22.10;95.50
2657;DHT22;1338;48.176;11.792;2024-03-29T12:33:51;22.20;97.00
2657;DHT22;1338;48.176;11.792;2024-03-29T12:36:23;21.90;85.80
2657;DHT22;1338;48.176;11.792;2024-03-29T12:38:54;21.90;94.40
2657;DHT22;1338;48.176;11.792;2024-03-29T12:41:24;20.80;99.90
2657;DHT22;1338;48.176;11.792;2024-03-29T12:43:52;20.90;99.90
2657;DHT22;1338;48.176;11.792;2024-03-29T12:46:22;22.50;99.90
2657;DHT22;1338;48.176;11.792;2024-03-29T12:48:57;21.50;99.90
2657;DHT22;1338;48.176;11.792;2024-03-29T12:51:26;22.30;99.90
2657;DHT22;1338;48.176;11.792;2024-03-29T12:53:54;21.70;90.90
2657;DHT22;1338;48.176;11.792;2024-03-29T12:56:21;22.20;99.20
2657;DHT22;1338;48.176;11.792;2024-03-29T12:58:50;21.90;95.30
2657;DHT22;1338;48.176;11.792;2024-03-29T13:01:18;22.40;90.70
2657;DHT22;1338;48.176;11.792;2024-03-29T13:03:48;22.70;90.50
2657;DHT22;1338;48.176;11.792;2024-03-29T13:06:16;22.60;75.60
2657;DHT22;1338;48.176;11.792;2024-03-29T13:08:44;23.10;82.90
2657;DHT22;1338;48.176;11.792;2024-03-29T13:11:11;22.60;77.40
2657;DHT22;1338;48.176;11.792;2024-03-29T13:13:39;24.10;61.80
2657;DHT22;1338;48.176;11.792;2024-03-29T13:16:07;22.90;57.20
2657;DHT22;1338;48.176;11.792;2024-03-29T13:18:35;22.70;52.90
2657;DHT22;1338;48.176;11.792;2024-03-29T13:21:06;23.10;50.40
2657;DHT22;1338;48.176;11.792;2024-03-29T13:23:33;22.70;41.20
2657;DHT22;1338;48.176;11.792;2024-03-29T13:26:01;22.60;44.40
2657;DHT22;1338;48.176;11.792;2024-03-29T13:28:29;22.50;34.80
2657;DHT22;1338;48.176;11.792;2024-03-29T13:30:57;21.60;25.70
2657;DHT22;1338;48.176;11.792;2024-03-29T13:33:25;21.90;30.80
2657;DHT22;1338;48.176;11.792;2024-03-29T13:35:53;22.00;29.30
2657;DHT22;1338;48.176;11.792;2024-03-29T13:38:22;23.60;34.70
2657;DHT22;1338;48.176;11.792;2024-03-29T13:40:52;22.60;34.00
2657;DHT22;1338;48.176;11.792;2024-03-29T13:43:20;23.40;42.10
2657;DHT22;1338;48.176;11.792;2024-03-29T13:45:49;22.90;27.20
2657;DHT22;1338;48.176;11.792;2024-03-29T13:48:17;23.80;12.00
2657;DHT22;1338;48.176;11.792;2024-03-29T13:50:44;23.90;5.30
2657;DHT22;1338;48.176;11.792;2024-03-29T13:53:12;23.60;1.00
2657;DHT22;1338;48.176;11.792;2024-03-29T13:55:43;23.00;1.00
2657;DHT22;1338;48.176;11.792;2024-03-29T13:58:10;22.90;1.00
2657;DHT22;1338;48.176;11.792;2024-03-29T14:00:38;23.00;1.00
2657;DHT22;1338;48.176;11.792;2024-03-29T14:03:06;23.20;1.00
2657;DHT22;1338;48.176;11.792;2024-03-29T14:05:34;22.30;1.00
2657;DHT22;1338;48.176;11.792;2024-03-29T14:08:03;22.90;1.00
2657;DHT22;1338;48.176;11.792;2024-03-29T14:10:31;23.40;1.00
2657;DHT22;1338;48.176;11.792;2024-03-29T14:13:04;24.10;1.00
2657;DHT22;1338;48.176;11.792;2024-03-29T14:15:32;23.20;1.00
2657;DHT22;1338;48.176;11.792;2024-03-29T14:18:00;23.10;1.00
2657;DHT22;1338;48.176;11.792;2024-03-29T14:20:28;22.60;1.00
2657;DHT22;1338;48.176;11.792;2024-03-29T14:22:56;24.00;1.00
2657;DHT22;1338;48.176;11.792;2024-03-29T14:25:29;23.60;1.00
2657;DHT22;1338;48.176;11.792;2024-03-29T14:27:57;23.90;1.00
2657;DHT22;1338;48.176;11.792;2024-03-29T14:30:28;23.90;1.00
2657;DHT22;1338;48.176;11.792;2024-03-29T14:32:56;23.80;1.00
2657;DHT22;1338;48.176;11.792;2024-03-29T14:35:24;23.70;1.00
2657;DHT22;1338;48.176;11.792;2024-03-29T14:37:53;23.70;1.00
2657;DHT22;1338;48.176;11.792;2024-03-29T14:40:22;23.80;1.00
2657;DHT22;1338;48.176;11.792;2024-03-29T14:42:50;23.40;1.00
2657;DHT22;1338;48.176;11.792;2024-03-29T14:45:18;22.90;1.00
2657;DHT22;1338;48.176;11.792;2024-03-29T14:47:47;22.30;1.00
2657;DHT22;1338;48.176;11.792;2024-03-29T14:50:15;22.70;1.00
2657;DHT22;1338;48.176;11.792;2024-03-29T14:52:44;22.30;1.00
2657;DHT22;1338;48.176;11.792;2024-03-29T14:55:13;22.20;1.00
2657;DHT22;1338;48.176;11.792;2024-03-29T14:57:40;22.40;1.00
2657;DHT22;1338;48.176;11.792;2024-03-29T15:00:08;22.60;1.00
2657;DHT22;1338;48.176;11.792;2024-03-29T15:02:37;22.50;1.00
2657;DHT22;1338;48.176;11.792;2024-03-29T15:05:07;22.40;1.00
2657;DHT22;1338;48.176;11.792;2024-03-29T15:07:37;22.20;1.00
2657;DHT22;1338;48.176;11.792;2024-03-29T15:10:06;22.10;1.00
2657;DHT22;1338;48.176;11.792;2024-03-29T15:12:36;22.20;1.00
2657;DHT22;1338;48.176;11.792;2024-03-29T15:15:05;22.50;1.00
2657;DHT22;1338;48.176;11.792;2024-03-29T15:17:33;22.10;1.00
2657;DHT22;1338;48.176;11.792;2024-03-29T15:20:00;22.00;1.00
2657;DHT22;1338;48.176;11.792;2024-03-29T15:22:32;22.00;1.00
2657;DHT22;1338;48.176;11.792;2024-03-29T15:25:00;21.90;1.00
2657;DHT22;1338;48.176;11.792;2024-03-29T15:27:28;21.70;1.00
2657;DHT22;1338;48.176;11.792;2024-03-29T15:30:22;21.80;1.00
2657;DHT22;1338;48.176;11.792;2024-03-29T15:32:48;21.20;1.00
2657;DHT22;1338;48.176;11.792;2024-03-29T15:35:16;21.40;1.00
2657;DHT22;1338;48.176;11.792;2024-03-29T15:37:45;21.10;1.00
2657;DHT22;1338;48.176;11.792;2024-03-29T15:40:14;21.40;1.00
2657;DHT22;1338;48.176;11.792;2024-03-29T15:42:42;21.60;1.00
2657;DHT22;1338;48.176;11.792;2024-03-29T15:45:10;21.30;1.00
2657;DHT22;1338;48.176;11.792;2024-03-29T15:47:38;21.00;1.00
2657;DHT22;1338;48.176;11.792;2024-03-29T15:50:06;21.10;1.00
2657;DHT22;1338;48.176;11.792;2024-03-29T15:52:34;20.90;1.00
2657;DHT22;1338;48.176;11.792;2024-03-29T15:55:04;20.90;1.00
2657;DHT22;1338;48.176;11.792;2024-03-29T15:57:34;20.80;1.00
2657;DHT22;1338;48.176;11.792;2024-03-29T16:00:06;20.80;1.00
2657;DHT22;1338;48.176;11.792;2024-03-29T16:02:46;20.80;1.00
2657;DHT22;1338;48.176;11.792;2024-03-29T16:05:14;21.00;1.00
2657;DHT22;1338;48.176;11.792;2024-03-29T16:07:42;21.20;1.00
2657;DHT22;1338;48.176;11.792;2024-03-29T16:10:11;21.40;1.00
2657;DHT22;1338;48.176;11.792;2024-03-29T16:12:39;21.60;1.00
2657;DHT22;1338;48.176;11.792;2024-03-29T16:15:07;21.80;1.00
2657;DHT22;1338;48.176;11.792;2024-03-29T16:17:36;22.00;1.00